sensor_id;sensor_type;location;lat;lon;timestamp;P1;durP1;ratioP1;P2;durP2;ratioP2
75090;SDS011;63674;48.048;8.306;2023-02-28T00:01:35;11.77;;;4.10;;
75090;SDS011;63674;48.048;8.306;2023-02-28T00:04:04;9.73;;;3.72;;
75090;SDS011;63674;48.048;8.306;2023-02-28T00:06:32;7.43;;;2.90;;
75090;SDS011;63674;48.048;8.306;2023-02-28T00:09:01;7.57;;;3.00;;
75090;SDS011;63674;48.048;8.306;2023-02-28T00:11:30;9.45;;;3.10;;
75090;SDS011;63674;48.048;8.306;2023-02-28T00:13:58;6.63;;;2.90;;
75090;SDS011;63674;48.048;8.306;2023-02-28T00:16:27;8.32;;;2.83;;
75090;SDS011;63674;48.048;8.306;2023-02-28T00:18:57;7.80;;;3.33;;
75090;SDS011;63674;48.048;8.306;2023-02-28T00:21:25;6.35;;;2.85;;
75090;SDS011;63674;48.048;8.306;2023-02-28T00:23:55;8.80;;;3.35;;
75090;SDS011;63674;48.048;8.306;2023-02-28T00:26:23;8.10;;;2.83;;
75090;SDS011;63674;48.048;8.306;2023-02-28T00:28:52;7.13;;;3.10;;
75090;SDS011;63674;48.048;8.306;2023-02-28T00:31:21;8.20;;;3.03;;
75090;SDS011;63674;48.048;8.306;2023-02-28T00:33:49;7.65;;;2.85;;
75090;SDS011;63674;48.048;8.306;2023-02-28T00:36:19;8.73;;;3.42;;
75090;SDS011;63674;48.048;8.306;2023-02-28T00:38:48;9.32;;;3.42;;
75090;SDS011;63674;48.048;8.306;2023-02-28T00:41:17;9.07;;;3.58;;
75090;SDS011;63674;48.048;8.306;2023-02-28T00:43:45;9.60;;;3.30;;
75090;SDS011;63674;48.048;8.306;2023-02-28T00:46:14;8.00;;;3.40;;
75090;SDS011;63674;48.048;8.306;2023-02-28T00:48:43;7.60;;;3.40;;
75090;SDS011;63674;48.048;8.306;2023-02-28T00:51:12;6.95;;;3.08;;
75090;SDS011;63674;48.048;8.306;2023-02-28T00:53:42;8.98;;;3.75;;
75090;SDS011;63674;48.048;8.306;2023-02-28T00:56:10;7.27;;;3.20;;
75090;SDS011;63674;48.048;8.306;2023-02-28T00:58:40;8.18;;;3.47;;
75090;SDS011;63674;48.048;8.306;2023-02-28T01:01:08;9.90;;;3.83;;
75090;SDS011;63674;48.048;8.306;2023-02-28T01:03:37;8.77;;;3.42;;
75090;SDS011;63674;48.048;8.306;2023-02-28T01:06:06;9.45;;;3.72;;
75090;SDS011;63674;48.048;8.306;2023-02-28T01:08:35;8.23;;;3.27;;
75090;SDS011;63674;48.048;8.306;2023-02-28T01:11:08;7.38;;;3.30;;
75090;SDS011;63674;48.048;8.306;2023-02-28T01:13:38;9.00;;;3.55;;
75090;SDS011;63674;48.048;8.306;2023-02-28T01:16:07;8.57;;;3.88;;
75090;SDS011;63674;48.048;8.306;2023-02-28T01:18:36;8.77;;;3.53;;
75090;SDS011;63674;48.048;8.306;2023-02-28T01:21:05;9.63;;;3.77;;
75090;SDS011;63674;48.048;8.306;2023-02-28T01:23:35;8.95;;;3.53;;
75090;SDS011;63674;48.048;8.306;2023-02-28T01:26:05;9.23;;;3.88;;
75090;SDS011;63674;48.048;8.306;2023-02-28T01:28:35;9.07;;;3.47;;
75090;SDS011;63674;48.048;8.306;2023-02-28T01:31:04;7.70;;;3.30;;
75090;SDS011;63674;48.048;8.306;2023-02-28T01:33:33;9.30;;;3.37;;
75090;SDS011;63674;48.048;8.306;2023-02-28T01:36:03;7.30;;;3.25;;
75090;SDS011;63674;48.048;8.306;2023-02-28T01:38:34;9.07;;;3.80;;
75090;SDS011;63674;48.048;8.306;2023-02-28T01:41:03;7.95;;;3.60;;
75090;SDS011;63674;48.048;8.306;2023-02-28T01:46:25;6.90;;;3.00;;
75090;SDS011;63674;48.048;8.306;2023-02-28T01:48:54;7.93;;;3.13;;
75090;SDS011;63674;48.048;8.306;2023-02-28T01:51:31;7.20;;;3.38;;
75090;SDS011;63674;48.048;8.306;2023-02-28T01:54:07;7.57;;;3.40;;
75090;SDS011;63674;48.048;8.306;2023-02-28T01:56:41;8.38;;;3.80;;
75090;SDS011;63674;48.048;8.306;2023-02-28T01:59:20;10.03;;;4.27;;
75090;SDS011;63674;48.048;8.306;2023-02-28T02:01:53;8.52;;;3.55;;
75090;SDS011;63674;48.048;8.306;2023-02-28T02:04:23;8.32;;;3.78;;
75090;SDS011;63674;48.048;8.306;2023-02-28T02:07:00;8.50;;;3.33;;
75090;SDS011;63674;48.048;8.306;2023-02-28T02:09:29;11.88;;;3.75;;
75090;SDS011;63674;48.048;8.306;2023-02-28T02:11:57;8.43;;;3.70;;
75090;SDS011;63674;48.048;8.306;2023-02-28T02:14:49;8.98;;;3.75;;
75090;SDS011;63674;48.048;8.306;2023-02-28T02:17:32;8.38;;;3.70;;
75090;SDS011;63674;48.048;8.306;2023-02-28T02:26:52;7.43;;;3.43;;
75090;SDS011;63674;48.048;8.306;2023-02-28T02:29:41;10.27;;;4.18;;
75090;SDS011;63674;48.048;8.306;2023-02-28T02:32:56;7.88;;;3.40;;
75090;SDS011;63674;48.048;8.306;2023-02-28T02:36:06;7.03;;;3.30;;
75090;SDS011;63674;48.048;8.306;2023-02-28T02:38:41;8.25;;;3.58;;
75090;SDS011;63674;48.048;8.306;2023-02-28T02:41:18;9.13;;;3.30;;
75090;SDS011;63674;48.048;8.306;2023-02-28T02:43:55;8.85;;;3.85;;
75090;SDS011;63674;48.048;8.306;2023-02-28T02:46:29;8.80;;;4.07;;
75090;SDS011;63674;48.048;8.306;2023-02-28T02:49:03;7.38;;;3.38;;
75090;SDS011;63674;48.048;8.306;2023-02-28T02:51:37;7.38;;;3.60;;
75090;SDS011;63674;48.048;8.306;2023-02-28T02:54:08;8.50;;;3.53;;
75090;SDS011;63674;48.048;8.306;2023-02-28T02:56:42;10.20;;;3.72;;
75090;SDS011;63674;48.048;8.306;2023-02-28T02:59:16;9.07;;;3.67;;
75090;SDS011;63674;48.048;8.306;2023-02-28T03:01:48;9.45;;;3.60;;
75090;SDS011;63674;48.048;8.306;2023-02-28T03:04:20;8.95;;;3.60;;
75090;SDS011;63674;48.048;8.306;2023-02-28T03:06:53;8.10;;;3.70;;
75090;SDS011;63674;48.048;8.306;2023-02-28T03:09:22;8.85;;;3.50;;
75090;SDS011;63674;48.048;8.306;2023-02-28T03:11:52;8.52;;;3.50;;
75090;SDS011;63674;48.048;8.306;2023-02-28T03:14:28;10.27;;;4.15;;
75090;SDS011;63674;48.048;8.306;2023-02-28T03:17:19;8.32;;;4.13;;
75090;SDS011;63674;48.048;8.306;2023-02-28T03:20:24;8.13;;;3.40;;
75090;SDS011;63674;48.048;8.306;2023-02-28T03:23:07;8.45;;;3.85;;
75090;SDS011;63674;48.048;8.306;2023-02-28T03:25:46;9.63;;;3.78;;
75090;SDS011;63674;48.048;8.306;2023-02-28T03:28:27;8.95;;;3.72;;
75090;SDS011;63674;48.048;8.306;2023-02-28T03:31:03;14.80;;;4.95;;
75090;SDS011;63674;48.048;8.306;2023-02-28T03:33:41;14.73;;;4.97;;
75090;SDS011;63674;48.048;8.306;2023-02-28T03:36:21;11.18;;;3.92;;
75090;SDS011;63674;48.048;8.306;2023-02-28T03:38:56;9.30;;;3.70;;
75090;SDS011;63674;48.048;8.306;2023-02-28T03:41:31;10.55;;;3.63;;
75090;SDS011;63674;48.048;8.306;2023-02-28T03:44:06;10.63;;;4.40;;
75090;SDS011;63674;48.048;8.306;2023-02-28T03:46:42;18.60;;;6.53;;
75090;SDS011;63674;48.048;8.306;2023-02-28T03:49:18;15.75;;;5.85;;
75090;SDS011;63674;48.048;8.306;2023-02-28T03:51:50;11.00;;;4.53;;
75090;SDS011;63674;48.048;8.306;2023-02-28T03:54:22;8.45;;;3.65;;
75090;SDS011;63674;48.048;8.306;2023-02-28T03:56:56;9.10;;;4.05;;
75090;SDS011;63674;48.048;8.306;2023-02-28T03:59:32;8.77;;;4.00;;
75090;SDS011;63674;48.048;8.306;2023-02-28T04:02:04;8.85;;;4.00;;
75090;SDS011;63674;48.048;8.306;2023-02-28T04:04:33;9.63;;;4.30;;
75090;SDS011;63674;48.048;8.306;2023-02-28T04:07:03;8.68;;;4.03;;
75090;SDS011;63674;48.048;8.306;2023-02-28T04:09:35;9.38;;;4.15;;
75090;SDS011;63674;48.048;8.306;2023-02-28T04:12:03;8.83;;;4.00;;
75090;SDS011;63674;48.048;8.306;2023-02-28T04:14:32;11.57;;;4.72;;
75090;SDS011;63674;48.048;8.306;2023-02-28T04:17:01;12.48;;;5.40;;
75090;SDS011;63674;48.048;8.306;2023-02-28T04:19:29;10.55;;;4.50;;
75090;SDS011;63674;48.048;8.306;2023-02-28T04:21:58;10.18;;;4.20;;
75090;SDS011;63674;48.048;8.306;2023-02-28T04:24:27;8.60;;;3.73;;
75090;SDS011;63674;48.048;8.306;2023-02-28T04:26:57;11.75;;;4.50;;
75090;SDS011;63674;48.048;8.306;2023-02-28T04:29:26;9.77;;;4.70;;
75090;SDS011;63674;48.048;8.306;2023-02-28T04:31:57;8.50;;;4.30;;
75090;SDS011;63674;48.048;8.306;2023-02-28T04:34:27;9.77;;;4.13;;
75090;SDS011;63674;48.048;8.306;2023-02-28T04:36:58;9.17;;;4.30;;
75090;SDS011;63674;48.048;8.306;2023-02-28T04:39:39;9.82;;;4.25;;
75090;SDS011;63674;48.048;8.306;2023-02-28T04:42:10;9.32;;;4.45;;
75090;SDS011;63674;48.048;8.306;2023-02-28T04:44:39;8.95;;;4.15;;
75090;SDS011;63674;48.048;8.306;2023-02-28T04:47:08;8.55;;;3.88;;
75090;SDS011;63674;48.048;8.306;2023-02-28T04:49:36;8.30;;;3.83;;
75090;SDS011;63674;48.048;8.306;2023-02-28T04:52:05;9.18;;;3.70;;
75090;SDS011;63674;48.048;8.306;2023-02-28T04:54:34;8.48;;;3.85;;
75090;SDS011;63674;48.048;8.306;2023-02-28T04:57:04;8.02;;;3.78;;
75090;SDS011;63674;48.048;8.306;2023-02-28T04:59:37;8.25;;;3.53;;
75090;SDS011;63674;48.048;8.306;2023-02-28T05:02:05;7.67;;;3.30;;
75090;SDS011;63674;48.048;8.306;2023-02-28T05:04:34;9.10;;;3.70;;
75090;SDS011;63674;48.048;8.306;2023-02-28T05:07:03;9.20;;;3.95;;
75090;SDS011;63674;48.048;8.306;2023-02-28T05:09:32;9.85;;;3.80;;
75090;SDS011;63674;48.048;8.306;2023-02-28T05:12:01;9.50;;;4.15;;
75090;SDS011;63674;48.048;8.306;2023-02-28T05:14:30;7.10;;;3.37;;
75090;SDS011;63674;48.048;8.306;2023-02-28T05:17:00;9.95;;;4.20;;
75090;SDS011;63674;48.048;8.306;2023-02-28T05:19:28;9.75;;;4.28;;
75090;SDS011;63674;48.048;8.306;2023-02-28T05:21:57;9.68;;;4.25;;
75090;SDS011;63674;48.048;8.306;2023-02-28T05:24:25;8.75;;;4.00;;
75090;SDS011;63674;48.048;8.306;2023-02-28T05:26:54;8.60;;;3.90;;
75090;SDS011;63674;48.048;8.306;2023-02-28T05:29:23;9.07;;;3.72;;
75090;SDS011;63674;48.048;8.306;2023-02-28T05:31:51;9.70;;;4.20;;
75090;SDS011;63674;48.048;8.306;2023-02-28T05:34:22;10.30;;;4.07;;
75090;SDS011;63674;48.048;8.306;2023-02-28T05:36:51;7.72;;;3.80;;
75090;SDS011;63674;48.048;8.306;2023-02-28T05:39:20;11.13;;;4.73;;
75090;SDS011;63674;48.048;8.306;2023-02-28T05:41:49;9.82;;;4.72;;
75090;SDS011;63674;48.048;8.306;2023-02-28T05:44:17;9.95;;;4.25;;
75090;SDS011;63674;48.048;8.306;2023-02-28T05:46:46;12.32;;;4.78;;
75090;SDS011;63674;48.048;8.306;2023-02-28T05:49:14;48.03;;;12.82;;
75090;SDS011;63674;48.048;8.306;2023-02-28T05:51:44;10.87;;;4.33;;
75090;SDS011;63674;48.048;8.306;2023-02-28T05:54:13;11.07;;;3.80;;
75090;SDS011;63674;48.048;8.306;2023-02-28T05:56:44;12.07;;;5.15;;
75090;SDS011;63674;48.048;8.306;2023-02-28T05:59:13;9.40;;;4.00;;
75090;SDS011;63674;48.048;8.306;2023-02-28T06:01:42;9.02;;;4.25;;
75090;SDS011;63674;48.048;8.306;2023-02-28T06:04:15;8.83;;;4.20;;
75090;SDS011;63674;48.048;8.306;2023-02-28T06:06:58;10.27;;;5.10;;
75090;SDS011;63674;48.048;8.306;2023-02-28T06:09:28;11.70;;;5.03;;
75090;SDS011;63674;48.048;8.306;2023-02-28T06:11:57;18.83;;;7.80;;
75090;SDS011;63674;48.048;8.306;2023-02-28T06:14:26;10.95;;;4.82;;
75090;SDS011;63674;48.048;8.306;2023-02-28T06:16:54;26.13;;;10.70;;
75090;SDS011;63674;48.048;8.306;2023-02-28T06:19:24;11.10;;;5.07;;
75090;SDS011;63674;48.048;8.306;2023-02-28T06:21:53;11.30;;;5.28;;
75090;SDS011;63674;48.048;8.306;2023-02-28T06:24:25;20.98;;;7.55;;
75090;SDS011;63674;48.048;8.306;2023-02-28T06:26:55;21.75;;;9.43;;
75090;SDS011;63674;48.048;8.306;2023-02-28T06:29:25;30.17;;;11.73;;
75090;SDS011;63674;48.048;8.306;2023-02-28T06:31:53;27.48;;;10.27;;
75090;SDS011;63674;48.048;8.306;2023-02-28T06:34:22;14.32;;;7.32;;
75090;SDS011;63674;48.048;8.306;2023-02-28T06:36:51;9.93;;;4.78;;
75090;SDS011;63674;48.048;8.306;2023-02-28T06:39:20;9.93;;;4.60;;
75090;SDS011;63674;48.048;8.306;2023-02-28T06:41:50;10.77;;;4.90;;
75090;SDS011;63674;48.048;8.306;2023-02-28T06:44:22;11.60;;;5.55;;
75090;SDS011;63674;48.048;8.306;2023-02-28T06:46:51;14.80;;;6.88;;
75090;SDS011;63674;48.048;8.306;2023-02-28T06:49:20;10.40;;;4.80;;
75090;SDS011;63674;48.048;8.306;2023-02-28T06:51:48;13.48;;;6.95;;
75090;SDS011;63674;48.048;8.306;2023-02-28T06:54:17;25.10;;;14.10;;
75090;SDS011;63674;48.048;8.306;2023-02-28T06:56:46;22.05;;;8.63;;
75090;SDS011;63674;48.048;8.306;2023-02-28T06:59:16;19.17;;;10.10;;
75090;SDS011;63674;48.048;8.306;2023-02-28T07:01:45;13.27;;;6.45;;
75090;SDS011;63674;48.048;8.306;2023-02-28T07:04:14;9.85;;;5.00;;
75090;SDS011;63674;48.048;8.306;2023-02-28T07:06:42;11.00;;;5.43;;
75090;SDS011;63674;48.048;8.306;2023-02-28T07:09:11;11.73;;;5.88;;
75090;SDS011;63674;48.048;8.306;2023-02-28T07:11:40;11.43;;;5.97;;
75090;SDS011;63674;48.048;8.306;2023-02-28T07:14:10;12.85;;;6.47;;
75090;SDS011;63674;48.048;8.306;2023-02-28T07:16:40;15.98;;;6.50;;
75090;SDS011;63674;48.048;8.306;2023-02-28T07:19:08;32.33;;;8.13;;
75090;SDS011;63674;48.048;8.306;2023-02-28T07:21:37;13.40;;;5.80;;
75090;SDS011;63674;48.048;8.306;2023-02-28T07:24:05;11.63;;;5.10;;
75090;SDS011;63674;48.048;8.306;2023-02-28T07:26:35;12.93;;;6.03;;
75090;SDS011;63674;48.048;8.306;2023-02-28T07:29:03;12.88;;;5.75;;
75090;SDS011;63674;48.048;8.306;2023-02-28T07:31:32;13.40;;;6.30;;
75090;SDS011;63674;48.048;8.306;2023-02-28T07:34:02;38.28;;;12.23;;
75090;SDS011;63674;48.048;8.306;2023-02-28T07:36:30;19.13;;;7.65;;
75090;SDS011;63674;48.048;8.306;2023-02-28T07:38:59;13.98;;;6.50;;
75090;SDS011;63674;48.048;8.306;2023-02-28T07:41:27;13.45;;;6.55;;
75090;SDS011;63674;48.048;8.306;2023-02-28T07:43:56;15.43;;;6.90;;
75090;SDS011;63674;48.048;8.306;2023-02-28T07:46:26;16.00;;;7.43;;
75090;SDS011;63674;48.048;8.306;2023-02-28T07:48:57;12.88;;;6.20;;
75090;SDS011;63674;48.048;8.306;2023-02-28T07:51:29;12.90;;;5.88;;
75090;SDS011;63674;48.048;8.306;2023-02-28T07:53:58;13.60;;;5.68;;
75090;SDS011;63674;48.048;8.306;2023-02-28T07:56:27;11.70;;;5.40;;
75090;SDS011;63674;48.048;8.306;2023-02-28T07:58:56;12.18;;;6.43;;
75090;SDS011;63674;48.048;8.306;2023-02-28T08:01:25;13.48;;;6.38;;
75090;SDS011;63674;48.048;8.306;2023-02-28T08:03:54;13.98;;;6.57;;
75090;SDS011;63674;48.048;8.306;2023-02-28T08:06:24;13.95;;;6.40;;
75090;SDS011;63674;48.048;8.306;2023-02-28T08:08:54;13.07;;;5.60;;
75090;SDS011;63674;48.048;8.306;2023-02-28T08:11:23;33.35;;;7.00;;
75090;SDS011;63674;48.048;8.306;2023-02-28T08:13:51;13.75;;;5.85;;
75090;SDS011;63674;48.048;8.306;2023-02-28T08:16:20;12.35;;;6.20;;
75090;SDS011;63674;48.048;8.306;2023-02-28T08:18:49;13.82;;;6.47;;
75090;SDS011;63674;48.048;8.306;2023-02-28T08:21:19;13.60;;;5.73;;
75090;SDS011;63674;48.048;8.306;2023-02-28T08:23:48;15.25;;;6.55;;
75090;SDS011;63674;48.048;8.306;2023-02-28T08:26:20;13.02;;;6.50;;
75090;SDS011;63674;48.048;8.306;2023-02-28T08:28:48;13.02;;;6.15;;
75090;SDS011;63674;48.048;8.306;2023-02-28T08:31:17;13.15;;;6.50;;
75090;SDS011;63674;48.048;8.306;2023-02-28T08:33:47;16.40;;;6.47;;
75090;SDS011;63674;48.048;8.306;2023-02-28T08:36:17;12.13;;;5.70;;
75090;SDS011;63674;48.048;8.306;2023-02-28T08:38:48;13.27;;;6.13;;
75090;SDS011;63674;48.048;8.306;2023-02-28T08:41:16;15.05;;;6.90;;
75090;SDS011;63674;48.048;8.306;2023-02-28T08:43:46;16.45;;;6.82;;
75090;SDS011;63674;48.048;8.306;2023-02-28T08:46:15;43.57;;;14.87;;
75090;SDS011;63674;48.048;8.306;2023-02-28T08:48:43;25.73;;;9.95;;
75090;SDS011;63674;48.048;8.306;2023-02-28T08:51:13;43.10;;;13.40;;
75090;SDS011;63674;48.048;8.306;2023-02-28T08:53:45;18.13;;;7.20;;
75090;SDS011;63674;48.048;8.306;2023-02-28T08:56:15;15.05;;;7.20;;
75090;SDS011;63674;48.048;8.306;2023-02-28T08:58:45;12.20;;;6.10;;
75090;SDS011;63674;48.048;8.306;2023-02-28T09:01:17;16.48;;;6.85;;
75090;SDS011;63674;48.048;8.306;2023-02-28T09:03:47;15.82;;;7.55;;
75090;SDS011;63674;48.048;8.306;2023-02-28T09:06:18;19.70;;;8.60;;
75090;SDS011;63674;48.048;8.306;2023-02-28T09:08:48;17.25;;;7.25;;
75090;SDS011;63674;48.048;8.306;2023-02-28T09:11:20;16.97;;;7.57;;
75090;SDS011;63674;48.048;8.306;2023-02-28T09:13:50;21.17;;;8.40;;
75090;SDS011;63674;48.048;8.306;2023-02-28T09:16:18;16.80;;;8.02;;
75090;SDS011;63674;48.048;8.306;2023-02-28T09:18:47;16.23;;;7.75;;
75090;SDS011;63674;48.048;8.306;2023-02-28T09:21:16;16.00;;;7.05;;
75090;SDS011;63674;48.048;8.306;2023-02-28T09:23:46;15.70;;;6.87;;
75090;SDS011;63674;48.048;8.306;2023-02-28T09:26:18;15.45;;;6.82;;
75090;SDS011;63674;48.048;8.306;2023-02-28T09:28:51;21.98;;;11.30;;
75090;SDS011;63674;48.048;8.306;2023-02-28T09:31:21;17.25;;;7.97;;
75090;SDS011;63674;48.048;8.306;2023-02-28T09:33:52;28.92;;;14.48;;
75090;SDS011;63674;48.048;8.306;2023-02-28T09:36:22;16.77;;;9.10;;
75090;SDS011;63674;48.048;8.306;2023-02-28T09:39:09;20.25;;;9.40;;
75090;SDS011;63674;48.048;8.306;2023-02-28T09:41:39;14.00;;;6.80;;
75090;SDS011;63674;48.048;8.306;2023-02-28T09:44:17;14.43;;;7.00;;
75090;SDS011;63674;48.048;8.306;2023-02-28T09:46:56;19.02;;;8.88;;
75090;SDS011;63674;48.048;8.306;2023-02-28T09:49:31;15.10;;;6.77;;
75090;SDS011;63674;48.048;8.306;2023-02-28T09:52:07;13.98;;;6.65;;
75090;SDS011;63674;48.048;8.306;2023-02-28T09:54:40;13.60;;;6.90;;
75090;SDS011;63674;48.048;8.306;2023-02-28T09:57:19;14.20;;;6.82;;
75090;SDS011;63674;48.048;8.306;2023-02-28T10:00:10;14.15;;;6.55;;
75090;SDS011;63674;48.048;8.306;2023-02-28T10:02:58;16.63;;;7.10;;
75090;SDS011;63674;48.048;8.306;2023-02-28T10:05:54;13.88;;;6.38;;
75090;SDS011;63674;48.048;8.306;2023-02-28T10:08:31;16.98;;;8.20;;
75090;SDS011;63674;48.048;8.306;2023-02-28T10:11:09;15.50;;;7.45;;
75090;SDS011;63674;48.048;8.306;2023-02-28T10:13:46;15.27;;;7.28;;
75090;SDS011;63674;48.048;8.306;2023-02-28T10:16:27;21.30;;;8.53;;
75090;SDS011;63674;48.048;8.306;2023-02-28T10:19:02;16.48;;;7.05;;
75090;SDS011;63674;48.048;8.306;2023-02-28T10:21:36;16.65;;;7.93;;
75090;SDS011;63674;48.048;8.306;2023-02-28T10:24:13;16.27;;;7.35;;
75090;SDS011;63674;48.048;8.306;2023-02-28T10:26:48;14.32;;;7.03;;
75090;SDS011;63674;48.048;8.306;2023-02-28T10:29:20;14.70;;;6.67;;
75090;SDS011;63674;48.048;8.306;2023-02-28T10:31:50;18.33;;;9.02;;
75090;SDS011;63674;48.048;8.306;2023-02-28T10:34:18;14.32;;;6.53;;
75090;SDS011;63674;48.048;8.306;2023-02-28T10:36:47;16.63;;;7.50;;
75090;SDS011;63674;48.048;8.306;2023-02-28T10:39:33;15.35;;;7.60;;
75090;SDS011;63674;48.048;8.306;2023-02-28T10:42:22;15.20;;;6.80;;
75090;SDS011;63674;48.048;8.306;2023-02-28T10:45:06;16.70;;;7.40;;
75090;SDS011;63674;48.048;8.306;2023-02-28T10:47:48;30.48;;;12.80;;
75090;SDS011;63674;48.048;8.306;2023-02-28T10:50:33;18.73;;;7.43;;
75090;SDS011;63674;48.048;8.306;2023-02-28T10:53:21;17.45;;;7.68;;
75090;SDS011;63674;48.048;8.306;2023-02-28T10:56:04;19.83;;;8.13;;
75090;SDS011;63674;48.048;8.306;2023-02-28T10:58:51;17.15;;;8.82;;
75090;SDS011;63674;48.048;8.306;2023-02-28T11:01:23;16.75;;;7.65;;
75090;SDS011;63674;48.048;8.306;2023-02-28T11:04:03;20.00;;;10.63;;
75090;SDS011;63674;48.048;8.306;2023-02-28T11:06:44;17.65;;;8.40;;
75090;SDS011;63674;48.048;8.306;2023-02-28T11:09:27;15.50;;;8.00;;
75090;SDS011;63674;48.048;8.306;2023-02-28T11:12:00;19.50;;;7.95;;
75090;SDS011;63674;48.048;8.306;2023-02-28T11:14:30;26.58;;;12.60;;
75090;SDS011;63674;48.048;8.306;2023-02-28T11:17:18;14.93;;;7.90;;
75090;SDS011;63674;48.048;8.306;2023-02-28T11:19:53;18.15;;;8.15;;
75090;SDS011;63674;48.048;8.306;2023-02-28T11:22:26;16.30;;;8.20;;
75090;SDS011;63674;48.048;8.306;2023-02-28T11:24:59;15.40;;;7.13;;
75090;SDS011;63674;48.048;8.306;2023-02-28T11:27:41;15.65;;;7.32;;
75090;SDS011;63674;48.048;8.306;2023-02-28T11:30:28;18.30;;;8.57;;
75090;SDS011;63674;48.048;8.306;2023-02-28T11:33:01;17.25;;;8.07;;
75090;SDS011;63674;48.048;8.306;2023-02-28T11:35:50;18.37;;;7.70;;
75090;SDS011;63674;48.048;8.306;2023-02-28T11:38:20;17.58;;;7.85;;
75090;SDS011;63674;48.048;8.306;2023-02-28T11:40:52;15.80;;;7.35;;
75090;SDS011;63674;48.048;8.306;2023-02-28T11:43:38;15.98;;;8.38;;
75090;SDS011;63674;48.048;8.306;2023-02-28T11:46:30;18.05;;;8.63;;
75090;SDS011;63674;48.048;8.306;2023-02-28T11:49:07;15.43;;;7.03;;
75090;SDS011;63674;48.048;8.306;2023-02-28T11:51:56;17.73;;;7.57;;
75090;SDS011;63674;48.048;8.306;2023-02-28T11:54:34;17.92;;;9.15;;
75090;SDS011;63674;48.048;8.306;2023-02-28T11:57:27;20.60;;;9.77;;
75090;SDS011;63674;48.048;8.306;2023-02-28T12:00:07;21.23;;;9.57;;
75090;SDS011;63674;48.048;8.306;2023-02-28T12:02:59;14.67;;;7.40;;
75090;SDS011;63674;48.048;8.306;2023-02-28T12:05:44;15.80;;;8.13;;
75090;SDS011;63674;48.048;8.306;2023-02-28T12:08:22;15.68;;;7.88;;
75090;SDS011;63674;48.048;8.306;2023-02-28T12:11:12;15.80;;;7.90;;
75090;SDS011;63674;48.048;8.306;2023-02-28T12:13:52;17.70;;;8.45;;
75090;SDS011;63674;48.048;8.306;2023-02-28T12:16:40;16.07;;;7.43;;
75090;SDS011;63674;48.048;8.306;2023-02-28T12:19:21;15.25;;;8.15;;
75090;SDS011;63674;48.048;8.306;2023-02-28T12:25:06;16.20;;;7.70;;
75090;SDS011;63674;48.048;8.306;2023-02-28T12:28:03;19.83;;;10.32;;
75090;SDS011;63674;48.048;8.306;2023-02-28T12:30:35;19.70;;;10.20;;
75090;SDS011;63674;48.048;8.306;2023-02-28T12:33:10;22.63;;;13.25;;
75090;SDS011;63674;48.048;8.306;2023-02-28T12:35:44;17.55;;;8.98;;
75090;SDS011;63674;48.048;8.306;2023-02-28T12:38:18;16.60;;;9.15;;
75090;SDS011;63674;48.048;8.306;2023-02-28T12:40:52;19.00;;;9.50;;
75090;SDS011;63674;48.048;8.306;2023-02-28T12:43:25;14.20;;;7.40;;
75090;SDS011;63674;48.048;8.306;2023-02-28T12:46:00;16.80;;;7.80;;
75090;SDS011;63674;48.048;8.306;2023-02-28T12:48:37;17.30;;;8.85;;
75090;SDS011;63674;48.048;8.306;2023-02-28T12:51:10;15.63;;;8.07;;
75090;SDS011;63674;48.048;8.306;2023-02-28T12:53:45;47.97;;;12.48;;
75090;SDS011;63674;48.048;8.306;2023-02-28T12:56:27;19.27;;;7.73;;
75090;SDS011;63674;48.048;8.306;2023-02-28T12:59:10;21.65;;;8.80;;
75090;SDS011;63674;48.048;8.306;2023-02-28T13:05:24;19.13;;;8.10;;
75090;SDS011;63674;48.048;8.306;2023-02-28T13:08:18;16.35;;;8.32;;
75090;SDS011;63674;48.048;8.306;2023-02-28T13:11:39;16.63;;;8.27;;
75090;SDS011;63674;48.048;8.306;2023-02-28T13:14:18;16.70;;;8.30;;
75090;SDS011;63674;48.048;8.306;2023-02-28T13:16:58;16.88;;;8.45;;
75090;SDS011;63674;48.048;8.306;2023-02-28T13:19:31;16.63;;;8.77;;
75090;SDS011;63674;48.048;8.306;2023-02-28T13:22:03;16.58;;;8.13;;
75090;SDS011;63674;48.048;8.306;2023-02-28T13:24:37;15.57;;;8.17;;
75090;SDS011;63674;48.048;8.306;2023-02-28T13:27:19;16.35;;;8.40;;
75090;SDS011;63674;48.048;8.306;2023-02-28T13:30:02;17.55;;;8.43;;
75090;SDS011;63674;48.048;8.306;2023-02-28T13:33:29;18.65;;;8.82;;
75090;SDS011;63674;48.048;8.306;2023-02-28T13:36:07;17.90;;;8.77;;
75090;SDS011;63674;48.048;8.306;2023-02-28T13:38:55;19.70;;;8.70;;
75090;SDS011;63674;48.048;8.306;2023-02-28T13:41:43;19.27;;;9.10;;
75090;SDS011;63674;48.048;8.306;2023-02-28T13:44:19;22.40;;;10.23;;
75090;SDS011;63674;48.048;8.306;2023-02-28T13:52:51;36.27;;;16.60;;
75090;SDS011;63674;48.048;8.306;2023-02-28T13:55:46;25.42;;;12.18;;
75090;SDS011;63674;48.048;8.306;2023-02-28T13:58:28;18.20;;;8.98;;
75090;SDS011;63674;48.048;8.306;2023-02-28T14:01:14;21.08;;;10.13;;
75090;SDS011;63674;48.048;8.306;2023-02-28T14:04:02;22.65;;;10.10;;
75090;SDS011;63674;48.048;8.306;2023-02-28T14:07:09;21.13;;;9.37;;
75090;SDS011;63674;48.048;8.306;2023-02-28T14:09:48;20.70;;;9.20;;
75090;SDS011;63674;48.048;8.306;2023-02-28T14:15:25;21.25;;;9.73;;
75090;SDS011;63674;48.048;8.306;2023-02-28T14:18:17;18.35;;;9.07;;
75090;SDS011;63674;48.048;8.306;2023-02-28T14:21:03;17.80;;;9.47;;
75090;SDS011;63674;48.048;8.306;2023-02-28T14:23:55;23.70;;;11.15;;
75090;SDS011;63674;48.048;8.306;2023-02-28T14:32:41;20.42;;;10.55;;
75090;SDS011;63674;48.048;8.306;2023-02-28T14:35:29;22.57;;;10.30;;
75090;SDS011;63674;48.048;8.306;2023-02-28T14:38:14;28.38;;;12.23;;
75090;SDS011;63674;48.048;8.306;2023-02-28T14:40:48;39.53;;;16.17;;
75090;SDS011;63674;48.048;8.306;2023-02-28T14:43:21;21.88;;;9.32;;
75090;SDS011;63674;48.048;8.306;2023-02-28T14:45:53;19.58;;;9.18;;
75090;SDS011;63674;48.048;8.306;2023-02-28T14:48:25;29.57;;;11.87;;
75090;SDS011;63674;48.048;8.306;2023-02-28T14:50:58;26.48;;;10.77;;
75090;SDS011;63674;48.048;8.306;2023-02-28T14:53:29;23.13;;;10.15;;
75090;SDS011;63674;48.048;8.306;2023-02-28T14:56:03;18.08;;;8.70;;
75090;SDS011;63674;48.048;8.306;2023-02-28T14:58:35;48.10;;;18.05;;
75090;SDS011;63674;48.048;8.306;2023-02-28T15:01:03;33.83;;;14.20;;
75090;SDS011;63674;48.048;8.306;2023-02-28T15:03:34;31.52;;;14.48;;
75090;SDS011;63674;48.048;8.306;2023-02-28T15:06:12;20.77;;;10.90;;
75090;SDS011;63674;48.048;8.306;2023-02-28T15:08:43;17.15;;;8.70;;
75090;SDS011;63674;48.048;8.306;2023-02-28T15:11:13;19.70;;;9.95;;
75090;SDS011;63674;48.048;8.306;2023-02-28T15:13:45;25.03;;;11.00;;
75090;SDS011;63674;48.048;8.306;2023-02-28T15:16:17;20.58;;;10.93;;
75090;SDS011;63674;48.048;8.306;2023-02-28T15:18:50;17.30;;;9.35;;
75090;SDS011;63674;48.048;8.306;2023-02-28T15:21:24;18.50;;;9.23;;
75090;SDS011;63674;48.048;8.306;2023-02-28T15:23:57;18.65;;;9.65;;
75090;SDS011;63674;48.048;8.306;2023-02-28T15:26:29;20.33;;;9.90;;
75090;SDS011;63674;48.048;8.306;2023-02-28T15:29:01;20.88;;;9.68;;
75090;SDS011;63674;48.048;8.306;2023-02-28T15:31:34;19.13;;;9.63;;
75090;SDS011;63674;48.048;8.306;2023-02-28T15:34:26;17.75;;;10.68;;
75090;SDS011;63674;48.048;8.306;2023-02-28T15:40:05;23.70;;;12.30;;
75090;SDS011;63674;48.048;8.306;2023-02-28T15:42:41;25.63;;;12.40;;
75090;SDS011;63674;48.048;8.306;2023-02-28T15:45:27;27.17;;;13.15;;
75090;SDS011;63674;48.048;8.306;2023-02-28T15:48:01;19.23;;;9.50;;
75090;SDS011;63674;48.048;8.306;2023-02-28T15:50:39;33.25;;;17.05;;
75090;SDS011;63674;48.048;8.306;2023-02-28T15:53:13;43.00;;;21.60;;
75090;SDS011;63674;48.048;8.306;2023-02-28T15:55:51;24.55;;;11.75;;